Time;durP1;ratioP1;P1;durP2;ratioP2;P2;SDS_P1;SDS_P2;PMS_P1;PMS_P2;Temp;Humidity;BMP_temperature;BMP_pressure;BME280_temperature;BME280_humidity;BME280_pressure;Samples;Min_cycle;Max_cycle;Signal;HPM_P1;HPM_P2
2021/01/16 00:00:50;;;;;;;26.65;17.40;;;;;;;0.89;67.07;94655.53;5079060;28;20308;-78
2021/01/16 00:03:16;;;;;;;29.65;17.80;;;;;;;0.88;66.71;94652.13;5074634;28;20228;-78
2021/01/16 00:05:44;;;;;;;30.77;17.65;;;;;;;0.95;66.93;94657.78;5075515;28;20209;-78
2021/01/16 00:08:11;;;;;;;32.53;17.20;;;;;;;0.92;67.03;94660.53;5075170;28;20204;-77
2021/01/16 00:10:39;;;;;;;26.90;15.73;;;;;;;0.85;67.25;94651.41;5074582;28;20212;-77
2021/01/16 00:13:11;;;;;;;23.92;13.55;;;;;;;0.84;67.65;94657.50;5074644;28;20206;-78
2021/01/16 00:15:37;;;;;;;23.92;13.55;;;;;;;0.85;67.97;94659.16;5074883;28;20208;-77
2021/01/16 00:18:06;;;;;;;22.95;14.18;;;;;;;0.85;67.39;94649.66;5074442;28;20229;-80
2021/01/16 00:20:34;;;;;;;22.38;14.25;;;;;;;0.85;67.76;94641.91;5006172;28;20196;-77
2021/01/16 00:23:00;;;;;;;22.83;13.50;;;;;;;0.88;67.48;94643.53;5074290;28;20245;-78
2021/01/16 00:25:28;;;;;;;25.45;12.98;;;;;;;0.85;66.64;94638.50;5074312;28;20641;-77
2021/01/16 00:27:54;;;;;;;19.90;11.55;;;;;;;0.85;66.66;94646.25;5074191;28;20198;-77
2021/01/16 00:30:25;;;;;;;25.55;11.65;;;;;;;0.78;66.19;94640.56;5074307;28;20301;-78
2021/01/16 00:32:51;;;;;;;21.38;13.70;;;;;;;0.82;66.18;94643.81;5073980;28;20209;-77
2021/01/16 00:35:19;;;;;;;23.20;13.57;;;;;;;0.81;66.06;94635.25;5074275;28;20198;-78
2021/01/16 00:37:46;;;;;;;20.50;12.52;;;;;;;0.80;66.03;94637.91;5074160;28;20213;-78
2021/01/16 00:40:14;;;;;;;19.17;12.73;;;;;;;0.77;66.84;94633.72;5074268;28;20241;-79
2021/01/16 00:42:42;;;;;;;21.60;13.13;;;;;;;0.74;66.90;94633.06;5073940;28;20198;-77
2021/01/16 00:45:10;;;;;;;21.63;12.30;;;;;;;0.78;67.08;94624.22;5073967;28;20259;-77
2021/01/16 00:47:38;;;;;;;21.38;11.52;;;;;;;0.77;67.65;94627.72;5074193;28;20206;-78
2021/01/16 00:50:06;;;;;;;17.77;11.63;;;;;;;0.73;67.39;94626.22;5038503;28;20774;-78
2021/01/16 00:52:32;;;;;;;14.00;9.88;;;;;;;0.68;67.62;94623.88;5073730;28;20676;-79
2021/01/16 00:54:59;;;;;;;16.00;10.90;;;;;;;0.73;67.25;94626.22;5073162;28;20563;-79
2021/01/16 00:57:26;;;;;;;23.85;10.85;;;;;;;0.70;66.14;94626.38;5073715;28;20552;-78
2021/01/16 00:59:52;;;;;;;15.07;10.80;;;;;;;0.70;66.08;94626.38;5073497;28;20216;-77
2021/01/16 01:02:19;;;;;;;14.93;9.55;;;;;;;0.72;65.83;94624.56;5074203;28;20202;-77
2021/01/16 01:04:46;;;;;;;24.17;11.68;;;;;;;0.71;66.33;94620.31;5073379;28;20218;-77
2021/01/16 01:07:13;;;;;;;16.15;9.57;;;;;;;0.67;66.49;94621.38;5073685;28;20267;-77
2021/01/16 01:09:41;;;;;;;15.85;10.05;;;;;;;0.65;66.63;94618.03;5073603;28;20194;-78
2021/01/16 01:12:08;;;;;;;10.85;9.50;;;;;;;0.69;66.77;94624.72;5054743;28;20206;-78
2021/01/16 01:14:34;;;;;;;18.98;10.80;;;;;;;0.69;66.99;94615.22;5054621;28;20212;-78
2021/01/16 01:17:01;;;;;;;13.48;10.45;;;;;;;0.70;66.76;94621.22;5073299;28;20210;-78
2021/01/16 01:19:28;;;;;;;18.30;11.18;;;;;;;0.74;67.08;94615.81;5073411;28;20213;-78
2021/01/16 01:21:55;;;;;;;17.58;9.80;;;;;;;0.79;66.81;94620.75;5073330;28;20234;-78
2021/01/16 01:24:21;;;;;;;18.70;9.63;;;;;;;0.79;66.23;94625.91;5073291;28;20229;-78
2021/01/16 01:26:47;;;;;;;14.45;9.90;;;;;;;0.76;66.41;94618.31;5073196;28;20210;-78
2021/01/16 01:29:14;;;;;;;15.45;9.73;;;;;;;0.74;66.10;94627.88;5073409;28;20251;-78
2021/01/16 01:31:40;;;;;;;15.55;10.35;;;;;;;0.69;66.44;94627.28;5072962;28;20213;-78
2021/01/16 01:34:06;;;;;;;13.82;9.32;;;;;;;0.68;66.73;94617.88;5037963;28;20218;-78
2021/01/16 01:36:36;;;;;;;17.42;9.30;;;;;;;0.64;66.45;94619.78;5073322;28;20230;-78
2021/01/16 01:39:05;;;;;;;15.18;10.45;;;;;;;0.60;66.72;94606.19;5073498;28;20218;-78
2021/01/16 01:41:36;;;;;;;15.02;9.63;;;;;;;0.69;66.25;94609.22;5073115;28;20206;-78
2021/01/16 01:44:02;;;;;;;16.52;10.40;;;;;;;0.64;65.98;94600.88;5054128;28;20859;-78
2021/01/16 01:46:29;;;;;;;19.00;11.45;;;;;;;0.65;65.98;94595.63;5072969;28;20211;-78
2021/01/16 01:48:55;;;;;;;16.13;10.10;;;;;;;0.70;66.55;94592.81;5054206;28;20198;-78
2021/01/16 01:51:23;;;;;;;17.05;12.13;;;;;;;0.69;66.37;94594.56;5073114;28;20206;-78
2021/01/16 01:53:52;;;;;;;13.85;10.07;;;;;;;0.68;66.37;94586.91;5072775;28;20210;-78
2021/01/16 01:56:23;;;;;;;16.98;10.25;;;;;;;0.67;66.78;94590.41;5038280;28;20636;-78
2021/01/16 01:58:51;;;;;;;23.10;11.68;;;;;;;0.67;66.62;94591.22;5073220;28;20212;-78
2021/01/16 02:01:19;;;;;;;18.00;11.00;;;;;;;0.61;66.73;94589.81;5072988;28;20204;-78
2021/01/16 02:03:47;;;;;;;15.15;11.90;;;;;;;0.69;66.44;94594.56;5072877;28;20253;-78
2021/01/16 02:06:14;;;;;;;15.35;11.60;;;;;;;0.71;66.35;94589.31;5072829;28;20251;-78
2021/01/16 02:08:40;;;;;;;18.00;10.43;;;;;;;0.72;65.94;94593.56;5057556;28;20197;-77
2021/01/16 02:11:07;;;;;;;26.08;10.93;;;;;;;0.72;65.76;94589.25;5077318;28;20707;-78
2021/01/16 02:13:34;;;;;;;18.30;10.70;;;;;;;0.74;65.58;94591.75;5077387;28;20198;-78
2021/01/16 02:16:06;;;;;;;13.18;9.50;;;;;;;0.74;65.44;94589.16;5076876;28;20578;-78
2021/01/16 02:18:36;;;;;;;17.38;9.40;;;;;;;0.78;66.21;94585.50;5076810;28;20622;-78
2021/01/16 02:21:05;;;;;;;22.85;9.90;;;;;;;0.81;66.45;94586.16;5076881;28;20519;-78
2021/01/16 02:23:34;;;;;;;19.25;11.43;;;;;;;0.87;66.28;94582.47;5076948;28;20229;-78
2021/01/16 02:26:39;;;;;;;17.60;10.00;;;;;;;0.86;65.97;94575.59;5077036;28;20689;-78
2021/01/16 02:29:09;;;;;;;15.13;10.23;;;;;;;0.87;66.21;94585.03;5076720;28;20206;-78
2021/01/16 02:31:40;;;;;;;23.45;12.05;;;;;;;0.74;66.34;94584.81;5077219;28;20255;-78
2021/01/16 02:34:07;;;;;;;26.10;13.77;;;;;;;0.71;66.98;94584.16;5076996;28;20236;-78
2021/01/16 02:36:53;;;;;;;23.80;14.05;;;;;;;0.68;67.13;94582.56;5076762;28;20553;-78
2021/01/16 02:39:28;;;;;;;15.90;11.05;;;;;;;0.68;66.96;94582.56;5076494;28;20668;-78
2021/01/16 02:42:03;;;;;;;20.60;11.43;;;;;;;0.73;67.23;94569.41;5076375;28;20200;-78
2021/01/16 02:44:44;;;;;;;14.88;9.75;;;;;;;0.79;67.05;94584.59;5076574;28;20229;-78
2021/01/16 02:47:23;;;;;;;17.52;10.68;;;;;;;0.81;66.95;94578.44;5076318;28;20294;-78
2021/01/16 02:49:53;;;;;;;14.60;10.65;;;;;;;0.87;66.36;94577.28;5076345;28;20312;-78
2021/01/16 02:52:20;;;;;;;19.38;11.35;;;;;;;0.89;66.63;94585.78;5076207;28;20205;-78
2021/01/16 02:54:48;;;;;;;18.13;11.63;;;;;;;0.83;65.39;94583.50;5076385;28;20196;-78
2021/01/16 02:57:15;;;;;;;11.25;7.55;;;;;;;0.57;64.53;94585.69;5076584;28;20214;-78
2021/01/16 02:59:43;;;;;;;7.63;6.35;;;;;;;0.27;65.41;94574.31;5076126;28;20256;-78
2021/01/16 03:02:11;;;;;;;11.70;7.35;;;;;;;0.14;66.03;94581.00;5076462;28;20202;-78
2021/01/16 03:04:38;;;;;;;10.23;6.60;;;;;;;-0.01;66.95;94580.84;5075826;28;20226;-78
2021/01/16 03:07:06;;;;;;;7.47;6.47;;;;;;;-0.04;67.91;94580.16;5075849;28;20206;-77
2021/01/16 03:09:33;;;;;;;15.73;7.90;;;;;;;-0.22;69.40;94583.66;5076100;28;20204;-77
2021/01/16 03:12:00;;;;;;;10.63;6.82;;;;;;;-0.39;70.74;94579.28;5076394;28;20198;-77
2021/01/16 03:14:29;;;;;;;10.23;7.72;;;;;;;-0.38;70.79;94581.78;5075665;28;20260;-78
2021/01/16 03:17:06;;;;;;;7.28;6.55;;;;;;;-0.48;72.79;94582.31;5075964;28;20198;-78
2021/01/16 03:19:34;;;;;;;13.35;8.32;;;;;;;-0.46;72.65;94581.31;5075317;28;20654;-78
2021/01/16 03:22:00;;;;;;;10.70;8.55;;;;;;;-0.42;72.96;94587.16;5075578;28;20222;-78
2021/01/16 03:24:27;;;;;;;11.20;8.75;;;;;;;-0.48;73.02;94579.72;5075946;28;20225;-78
2021/01/16 03:26:53;;;;;;;16.80;12.27;;;;;;;-0.48;73.54;94584.88;5075859;28;20209;-78
2021/01/16 03:29:20;;;;;;;14.55;9.93;;;;;;;-0.46;73.18;94577.91;5075560;28;20202;-78
2021/01/16 03:31:46;;;;;;;16.40;9.75;;;;;;;-0.49;73.68;94580.63;5075683;28;20202;-78
2021/01/16 03:34:13;;;;;;;13.02;9.20;;;;;;;-0.47;73.56;94576.25;5075944;28;20201;-77
2021/01/16 03:36:40;;;;;;;13.75;8.55;;;;;;;-0.40;73.23;94578.44;5076618;28;20206;-78
2021/01/16 03:39:06;;;;;;;14.02;8.95;;;;;;;-0.40;73.86;94578.44;5043247;28;20198;-78
2021/01/16 03:41:32;;;;;;;10.57;7.07;;;;;;;-0.34;73.21;94579.88;5077113;28;20210;-78
2021/01/16 03:43:59;;;;;;;15.77;8.10;;;;;;;-0.32;73.33;94580.66;5075388;28;20222;-78
2021/01/16 03:46:25;;;;;;;15.32;8.60;;;;;;;-0.22;73.55;94579.31;5075438;28;20207;-78
2021/01/16 03:48:51;;;;;;;15.57;9.80;;;;;;;-0.23;74.05;94582.81;5075786;28;20596;-78
2021/01/16 03:51:19;;;;;;;19.88;11.43;;;;;;;-0.16;73.65;94583.34;5075333;28;20198;-77
2021/01/16 03:53:47;;;;;;;17.05;9.20;;;;;;;-0.18;73.91;94583.41;5074923;28;20202;-78
2021/01/16 03:56:14;;;;;;;13.63;9.80;;;;;;;-0.15;73.96;94575.53;5075130;28;20200;-78
2021/01/16 03:58:40;;;;;;;16.20;10.70;;;;;;;-0.05;74.34;94578.50;5075188;28;20218;-78
2021/01/16 04:01:06;;;;;;;19.60;10.63;;;;;;;-0.02;74.06;94581.75;5075022;28;20206;-78
2021/01/16 04:03:33;;;;;;;14.60;10.18;;;;;;;-0.02;73.69;94576.59;5075002;28;20218;-77
2021/01/16 04:05:59;;;;;;;14.30;10.07;;;;;;;-0.05;74.19;94576.75;5074856;28;20563;-78
2021/01/16 04:08:26;;;;;;;13.13;9.95;;;;;;;-0.06;73.91;94580.25;5039413;28;20197;-78
2021/01/16 04:10:52;;;;;;;15.25;9.98;;;;;;;-0.07;74.41;94576.00;5074690;28;20526;-78
2021/01/16 04:13:19;;;;;;;18.50;10.73;;;;;;;0.03;74.07;94578.97;5074635;28;20716;-78
2021/01/16 04:15:45;;;;;;;12.35;8.85;;;;;;;-0.02;73.21;94570.59;5074677;28;20206;-78
2021/01/16 04:18:12;;;;;;;18.35;9.57;;;;;;;-0.05;73.38;94576.75;5074921;28;20202;-78
2021/01/16 04:20:38;;;;;;;13.85;9.30;;;;;;;-0.05;74.07;94571.59;5039023;28;20607;-78
2021/01/16 04:23:05;;;;;;;16.27;10.55;;;;;;;-0.16;73.86;94576.44;5074803;28;20529;-78
2021/01/16 04:25:32;;;;;;;10.00;8.75;;;;;;;-0.18;74.00;94580.84;5074736;28;20206;-78
2021/01/16 04:27:58;;;;;;;12.40;8.93;;;;;;;-0.23;74.48;94579.41;5038987;28;20297;-78
2021/01/16 04:30:25;;;;;;;17.10;9.13;;;;;;;-0.34;74.34;94588.47;5073729;28;20540;-78
2021/01/16 04:32:51;;;;;;;14.50;9.18;;;;;;;-0.35;75.25;94584.22;5074495;28;20209;-78
2021/01/16 04:35:18;;;;;;;20.02;11.85;;;;;;;-0.22;74.94;94588.81;5074022;28;20202;-77
2021/01/16 04:37:45;;;;;;;23.20;13.18;;;;;;;-0.21;74.31;94591.31;5074496;28;20202;-78
2021/01/16 04:40:12;;;;;;;19.45;10.90;;;;;;;-0.40;74.42;94585.34;5074090;28;20201;-77
2021/01/16 04:42:43;;;;;;;20.95;10.45;;;;;;;-0.46;74.20;94589.06;5074075;28;20259;-77
2021/01/16 04:45:14;;;;;;;11.57;8.73;;;;;;;-0.43;74.64;94594.06;5074216;28;20230;-77
2021/01/16 04:47:43;;;;;;;14.85;10.07;;;;;;;-0.37;75.02;94593.75;5074003;28;20234;-77
2021/01/16 04:50:12;;;;;;;18.35;9.98;;;;;;;-0.44;74.28;94591.56;5074232;28;20194;-77
2021/01/16 04:52:38;;;;;;;19.27;10.43;;;;;;;-0.38;74.05;94594.66;5073889;28;20213;-78
2021/01/16 04:55:08;;;;;;;18.02;11.38;;;;;;;-0.44;73.77;94591.56;5073655;28;20658;-77
2021/01/16 04:57:37;;;;;;;15.73;9.93;;;;;;;-0.42;72.99;94593.16;5073712;28;20695;-77
2021/01/16 05:00:08;;;;;;;16.38;11.52;;;;;;;-0.44;72.84;94594.13;5073717;28;20545;-77
2021/01/16 05:02:38;;;;;;;15.15;10.38;;;;;;;-0.49;73.25;94596.94;5073751;28;20201;-77
2021/01/16 05:05:06;;;;;;;12.55;9.48;;;;;;;-0.54;72.98;94592.91;5073712;28;20236;-77
2021/01/16 05:07:34;;;;;;;15.10;9.23;;;;;;;-0.65;72.39;94594.22;5073375;28;20241;-77
2021/01/16 05:10:02;;;;;;;11.93;8.35;;;;;;;-0.75;72.98;94599.88;5073868;28;20207;-77
2021/01/16 05:12:43;;;;;;;17.30;9.75;;;;;;;-0.77;72.82;94602.53;5073633;28;20206;-77
2021/01/16 05:15:19;;;;;;;15.55;9.60;;;;;;;-0.84;72.76;94595.97;5073683;28;20245;-77
2021/01/16 05:17:50;;;;;;;12.88;8.10;;;;;;;-0.97;72.81;94605.16;5073480;28;20619;-77
2021/01/16 05:20:17;;;;;;;15.30;9.18;;;;;;;-0.97;73.14;94615.44;5054839;28;20206;-77
2021/01/16 05:22:43;;;;;;;13.07;8.65;;;;;;;-0.98;72.58;94609.47;5073528;28;20241;-77
2021/01/16 05:25:11;;;;;;;20.50;11.63;;;;;;;-0.99;72.19;94612.09;5038077;28;20221;-77
2021/01/16 05:27:38;;;;;;;12.63;8.90;;;;;;;-1.06;72.77;94596.09;5038726;28;20202;-77
2021/01/16 05:30:07;;;;;;;16.00;10.30;;;;;;;-1.00;72.13;94603.56;5073682;28;20195;-77
2021/01/16 05:32:35;;;;;;;17.20;10.38;;;;;;;-0.93;72.46;94606.69;5073256;28;20210;-77
2021/01/16 05:35:20;;;;;;;23.20;11.25;;;;;;;-0.74;72.04;94602.38;5073357;28;20194;-78
2021/01/16 05:37:48;;;;;;;12.85;10.32;;;;;;;-0.65;71.27;94596.78;4975318;28;20247;-78
2021/01/16 05:40:15;;;;;;;14.40;10.20;;;;;;;-0.57;70.52;94608.50;4914631;29;20214;-77
2021/01/16 05:42:41;;;;;;;13.95;9.57;;;;;;;-0.56;69.40;94616.16;4914803;29;20874;-77
2021/01/16 05:45:10;;;;;;;11.48;8.40;;;;;;;-0.55;68.69;94615.25;4914986;29;20227;-78
2021/01/16 05:47:42;;;;;;;11.32;8.60;;;;;;;-0.69;67.85;94615.88;4914697;29;20203;-78
2021/01/16 05:50:10;;;;;;;10.77;7.45;;;;;;;-0.68;68.51;94620.13;4914897;29;20673;-78
2021/01/16 05:52:37;;;;;;;15.73;9.13;;;;;;;-0.62;68.72;94622.41;4914735;29;20203;-77
2021/01/16 05:55:07;;;;;;;12.73;8.90;;;;;;;-0.63;68.30;94620.75;4914792;29;20215;-78
2021/01/16 05:57:35;;;;;;;19.33;9.77;;;;;;;-0.70;68.32;94609.06;4914662;29;20214;-76
2021/01/16 06:00:02;;;;;;;15.50;9.93;;;;;;;-0.75;68.27;94607.59;4914741;29;20212;-77
2021/01/16 06:02:30;;;;;;;13.18;8.70;;;;;;;-0.81;68.20;94616.44;4914527;29;20215;-77
2021/01/16 06:04:58;;;;;;;20.00;10.63;;;;;;;-0.77;68.43;94612.81;4957418;28;20236;-77
2021/01/16 06:07:25;;;;;;;23.02;12.25;;;;;;;-0.66;68.59;94614.91;4991395;28;20344;-77
2021/01/16 06:09:52;;;;;;;21.67;12.20;;;;;;;-0.70;68.62;94614.22;4991197;28;20352;-77
2021/01/16 06:12:20;;;;;;;13.77;7.97;;;;;;;-0.68;68.22;94616.72;4991332;28;20804;-77
2021/01/16 06:14:48;;;;;;;19.70;11.52;;;;;;;-0.60;68.04;94612.03;5029049;28;20198;-77
2021/01/16 06:17:17;;;;;;;36.15;16.98;;;;;;;-0.50;68.38;94612.47;5054192;28;20202;-77
2021/01/16 06:19:45;;;;;;;21.60;11.65;;;;;;;-0.58;66.69;94611.97;5072586;28;20202;-77
2021/01/16 06:22:14;;;;;;;67.75;24.35;;;;;;;-0.48;66.17;94605.50;5070429;28;20227;-77
2021/01/16 06:24:47;;;;;;;20.60;9.23;;;;;;;-0.58;65.03;94609.38;5072737;28;20712;-76
2021/01/16 06:27:22;;;;;;;13.48;8.38;;;;;;;-0.72;65.01;94607.47;5072941;28;20599;-77
2021/01/16 06:29:59;;;;;;;12.18;8.48;;;;;;;-0.80;65.10;94602.66;5073164;28;20605;-77
2021/01/16 06:32:27;;;;;;;18.98;12.50;;;;;;;-0.78;65.27;94595.69;5072775;28;20237;-76
2021/01/16 06:35:07;;;;;;;17.50;10.63;;;;;;;-0.85;65.09;94598.63;5072675;28;20214;-77
2021/01/16 06:37:42;;;;;;;22.67;9.57;;;;;;;-0.85;65.79;94603.78;5072650;28;20198;-77
2021/01/16 06:40:09;;;;;;;16.17;10.90;;;;;;;-0.81;65.14;94607.88;5072772;28;20202;-78
2021/01/16 06:42:37;;;;;;;23.55;11.10;;;;;;;-0.83;65.39;94613.09;5072812;28;20280;-77
2021/01/16 06:45:08;;;;;;;25.40;12.98;;;;;;;-0.72;65.60;94607.47;5072642;28;20226;-77
2021/01/16 06:47:35;;;;;;;20.15;12.82;;;;;;;-0.71;64.98;94607.38;5072716;28;20209;-80
2021/01/16 06:50:04;;;;;;;26.50;13.82;;;;;;;-0.65;64.49;94606.25;5072686;28;20209;-78
2021/01/16 06:52:37;;;;;;;17.70;10.98;;;;;;;-0.63;63.15;94609.59;5073151;28;20314;-82
2021/01/16 06:55:05;;;;;;;19.23;10.75;;;;;;;-0.63;63.13;94605.28;5076085;28;20201;-78
2021/01/16 06:57:33;;;;;;;19.23;10.52;;;;;;;-0.69;62.51;94603.00;5076660;28;20202;-77
2021/01/16 07:00:07;;;;;;;13.35;8.10;;;;;;;-0.77;61.51;94607.66;5076375;28;20650;-77
2021/01/16 07:02:35;;;;;;;16.35;10.25;;;;;;;-0.79;60.99;94612.06;5076414;28;20232;-77
2021/01/16 07:05:06;;;;;;;11.65;8.60;;;;;;;-0.72;60.27;94610.03;5077098;28;20229;-78
2021/01/16 07:07:35;;;;;;;21.02;9.40;;;;;;;-0.76;59.74;94604.19;5078109;28;20206;-80
2021/01/16 07:10:05;;;;;;;11.52;8.73;;;;;;;-0.78;59.32;94607.75;5075797;28;20206;-79
2021/01/16 07:12:32;;;;;;;15.70;8.18;;;;;;;-0.81;58.69;94608.72;5076253;28;20608;-78
2021/01/16 07:14:58;;;;;;;19.27;7.65;;;;;;;-0.77;62.85;94607.66;5076066;28;20206;-78
2021/01/16 07:17:27;;;;;;;17.75;9.27;;;;;;;-0.39;75.64;94603.31;5040642;28;20201;-78
2021/01/16 07:19:57;;;;;;;19.25;10.18;;;;;;;-0.21;74.50;94611.94;5075800;28;20206;-78
2021/01/16 07:22:28;;;;;;;13.68;8.07;;;;;;;-0.18;69.11;94610.94;5075673;28;20534;-78
2021/01/16 07:24:55;;;;;;;17.92;9.52;;;;;;;-0.38;61.04;94599.81;5075669;28;20300;-79
2021/01/16 07:27:24;;;;;;;14.55;8.48;;;;;;;-0.47;65.31;94605.41;5075687;28;20198;-79
2021/01/16 07:29:51;;;;;;;8.80;6.65;;;;;;;-0.48;59.79;94610.66;4991273;28;20789;-79
2021/01/16 07:32:17;;;;;;;16.88;8.77;;;;;;;-0.48;59.64;94601.19;5075506;28;20212;-79
2021/01/16 07:34:48;;;;;;;16.50;10.85;;;;;;;-0.48;60.01;94602.91;5075629;28;20650;-78
2021/01/16 07:37:16;;;;;;;17.52;8.77;;;;;;;-0.57;60.34;94608.50;5075464;28;21023;-79
2021/01/16 07:39:43;;;;;;;17.55;9.63;;;;;;;-0.70;63.71;94603.91;5075504;28;20260;-80
2021/01/16 07:42:13;;;;;;;19.77;9.15;;;;;;;-0.89;64.48;94603.06;5075470;28;20289;-79
2021/01/16 07:44:44;;;;;;;15.63;10.38;;;;;;;-0.93;65.08;94598.94;5075481;28;20261;-79
2021/01/16 07:47:19;;;;;;;16.60;11.63;;;;;;;-0.99;66.94;94604.38;5075433;28;20213;-78
2021/01/16 07:49:53;;;;;;;24.90;13.20;;;;;;;-1.03;67.63;94597.69;5075625;28;20203;-79
2021/01/16 07:52:23;;;;;;;20.38;11.88;;;;;;;-1.00;67.91;94605.28;5074971;28;20216;-79
2021/01/16 07:55:05;;;;;;;13.40;7.32;;;;;;;-1.02;66.53;94602.78;5074980;28;20619;-78
2021/01/16 07:57:33;;;;;;;17.42;7.60;;;;;;;-1.15;67.77;94596.53;5075382;28;20210;-79
2021/01/16 08:00:05;;;;;;;19.30;10.52;;;;;;;-1.08;78.38;94600.50;5075322;28;20233;-78
2021/01/16 08:02:33;;;;;;;16.55;9.77;;;;;;;-1.06;69.41;94601.25;5074720;28;20216;-78
2021/01/16 08:05:16;;;;;;;18.80;8.50;;;;;;;-1.05;69.10;94605.50;5074107;28;20230;-78
2021/01/16 08:08:13;;;;;;;11.57;7.53;;;;;;;-0.94;69.84;94602.44;5074880;28;20520;-78
2021/01/16 08:10:43;;;;;;;23.00;11.45;;;;;;;-0.98;68.31;94599.16;5075007;28;20226;-78
2021/01/16 08:13:12;;;;;;;10.95;8.80;;;;;;;-1.00;68.56;94610.44;5074957;28;20253;-77
2021/01/16 08:15:42;;;;;;;15.88;10.38;;;;;;;-1.13;69.21;94609.31;5074737;28;20237;-78
2021/01/16 08:18:17;;;;;;;20.60;9.00;;;;;;;-1.11;71.40;94602.38;5074726;28;20206;-78
2021/01/16 08:20:46;;;;;;;13.02;8.27;;;;;;;-1.11;69.43;94607.50;5074754;28;20586;-78
2021/01/16 08:23:22;;;;;;;12.07;9.30;;;;;;;-1.13;69.93;94614.47;5074373;28;20570;-79
2021/01/16 08:25:49;;;;;;;16.27;9.23;;;;;;;-1.11;70.73;94617.81;5074438;28;20236;-79
2021/01/16 08:28:25;;;;;;;11.75;7.50;;;;;;;-1.14;72.34;94620.53;5074651;28;20612;-79
2021/01/16 08:30:51;;;;;;;18.33;9.60;;;;;;;-1.12;71.01;94611.00;5074871;28;20210;-78
2021/01/16 08:33:17;;;;;;;18.73;9.38;;;;;;;-1.07;71.34;94619.34;5055726;28;20681;-79
2021/01/16 08:35:46;;;;;;;24.73;11.13;;;;;;;-1.10;71.47;94624.63;5074425;28;20206;-79
2021/01/16 08:38:23;;;;;;;18.00;9.60;;;;;;;-1.09;71.90;94618.56;5074268;28;20205;-79
2021/01/16 08:41:02;;;;;;;16.08;9.82;;;;;;;-0.97;73.12;94628.31;5074546;28;20194;-79
2021/01/16 08:43:34;;;;;;;25.15;10.02;;;;;;;-0.98;71.58;94629.22;5074033;28;20236;-78
2021/01/16 08:46:15;;;;;;;7.75;5.75;;;;;;;-1.09;74.59;94623.72;5074545;28;20198;-78
2021/01/16 08:48:56;;;;;;;11.10;6.13;;;;;;;-1.23;73.57;94618.34;5074414;28;20226;-79
2021/01/16 08:51:38;;;;;;;16.58;7.47;;;;;;;-1.30;74.11;94626.31;5074548;28;20237;-79
2021/01/16 08:54:16;;;;;;;14.75;8.63;;;;;;;-1.16;75.87;94620.56;5074428;28;20206;-78
2021/01/16 08:56:45;;;;;;;11.38;7.63;;;;;;;-1.22;73.47;94622.56;5073828;28;20205;-78
2021/01/16 08:59:20;;;;;;;13.23;7.63;;;;;;;-1.25;75.76;94620.97;5074068;28;20206;-78
2021/01/16 09:01:47;;;;;;;12.50;6.45;;;;;;;-1.37;70.95;94630.06;5073972;28;20209;-78
2021/01/16 09:04:22;;;;;;;9.38;5.75;;;;;;;-1.25;73.32;94626.97;5073844;28;20225;-77
2021/01/16 09:06:49;;;;;;;16.23;7.80;;;;;;;-1.31;72.71;94622.09;5054771;28;20198;-79
2021/01/16 09:09:25;;;;;;;15.50;6.80;;;;;;;-0.93;81.10;94624.69;5074237;28;20723;-80
2021/01/16 09:12:08;;;;;;;8.25;6.50;;;;;;;-1.02;73.84;94614.81;5073897;28;20209;-79
2021/01/16 09:14:36;;;;;;;11.90;7.15;;;;;;;-1.04;70.81;94609.75;5073293;28;20541;-78
2021/01/16 09:17:23;;;;;;;18.55;10.10;;;;;;;-1.01;70.69;94608.78;5073423;28;20259;-78
2021/01/16 09:19:56;;;;;;;19.98;9.52;;;;;;;-1.03;68.07;94608.00;5073403;28;20206;-78
2021/01/16 09:22:25;;;;;;;21.13;10.60;;;;;;;-1.09;67.48;94608.28;5073691;28;20701;-78
2021/01/16 09:24:51;;;;;;;20.63;10.70;;;;;;;-1.20;67.19;94598.44;5073094;28;20230;-78
2021/01/16 09:27:29;;;;;;;22.70;9.65;;;;;;;-1.21;67.25;94598.50;5073823;28;20198;-78
2021/01/16 09:29:57;;;;;;;22.00;13.63;;;;;;;-1.23;68.16;94603.72;5073252;28;20212;-78
2021/01/16 09:32:31;;;;;;;21.25;10.43;;;;;;;-1.16;67.09;94599.97;5073497;28;20206;-78
2021/01/16 09:34:58;;;;;;;11.68;8.15;;;;;;;-1.14;65.63;94600.78;5073067;28;20261;-78
2021/01/16 09:37:27;;;;;;;11.68;8.02;;;;;;;-1.12;66.75;94598.13;5073323;28;20210;-78
2021/01/16 09:40:09;;;;;;;12.75;6.60;;;;;;;-1.14;65.57;94602.50;5054129;28;20293;-78
2021/01/16 09:42:46;;;;;;;9.80;7.03;;;;;;;-1.22;65.90;94589.94;5073102;28;20209;-78
2021/01/16 09:45:15;;;;;;;12.50;7.07;;;;;;;-1.33;66.50;94581.88;5072943;28;20233;-78
2021/01/16 09:47:51;;;;;;;18.73;9.88;;;;;;;-1.44;66.35;94587.50;5073580;28;20309;-78
2021/01/16 09:50:26;;;;;;;14.98;8.00;;;;;;;-1.34;65.46;94586.19;5073030;28;20227;-78
2021/01/16 09:52:55;;;;;;;10.55;6.00;;;;;;;-1.24;64.71;94578.88;5073089;28;20206;-78
2021/01/16 09:55:25;;;;;;;10.70;6.35;;;;;;;-1.19;62.68;94570.97;5073190;28;20263;-78
2021/01/16 09:57:51;;;;;;;21.63;7.07;;;;;;;-1.02;63.48;94574.47;5073065;28;20201;-78
2021/01/16 10:00:27;;;;;;;9.60;6.82;;;;;;;-0.79;62.96;94572.59;5073283;28;20202;-78
2021/01/16 10:03:05;;;;;;;29.90;9.23;;;;;;;-0.66;60.68;94571.09;5073085;28;20198;-78
2021/01/16 10:05:37;;;;;;;15.43;9.18;;;;;;;-0.51;58.73;94572.97;5071704;28;20837;-79
2021/01/16 10:08:05;;;;;;;10.48;5.30;;;;;;;-0.39;57.64;94561.25;5072951;28;20209;-78
2021/01/16 10:10:43;;;;;;;8.52;5.68;;;;;;;-0.37;56.05;94567.16;5073103;28;20204;-78
2021/01/16 10:13:11;;;;;;;9.38;5.43;;;;;;;-0.31;55.21;94566.84;5072730;28;20202;-80
2021/01/16 10:15:48;;;;;;;7.00;5.00;;;;;;;-0.06;54.14;94562.19;5072799;28;20665;-78
2021/01/16 10:18:21;;;;;;;7.78;5.72;;;;;;;0.21;55.66;94554.00;5074186;28;20583;-78
2021/01/16 10:21:03;;;;;;;11.95;5.80;;;;;;;0.47;53.60;94550.09;5082413;28;20205;-78
2021/01/16 10:23:30;;;;;;;10.57;6.47;;;;;;;0.68;53.44;94555.91;5072560;28;20630;-78
2021/01/16 10:26:02;;;;;;;9.80;5.55;;;;;;;0.69;56.19;94557.59;5054363;28;20213;-78
2021/01/16 10:28:31;;;;;;;10.95;6.93;;;;;;;0.89;53.37;94554.81;5074972;28;20589;-78
2021/01/16 10:31:00;;;;;;;9.45;5.80;;;;;;;0.86;52.76;94544.59;5077013;28;20214;-77
2021/01/16 10:33:34;;;;;;;16.02;7.15;;;;;;;0.83;53.06;94543.03;5076916;28;20202;-77
2021/01/16 10:36:09;;;;;;;6.43;5.03;;;;;;;0.57;48.42;94549.53;5076564;28;20614;-78
2021/01/16 10:38:44;;;;;;;8.30;4.88;;;;;;;0.30;53.04;94538.06;5076526;28;20214;-78
2021/01/16 10:41:13;;;;;;;5.55;4.70;;;;;;;-0.08;50.73;94556.28;5076340;28;20213;-78
2021/01/16 10:43:40;;;;;;;12.30;7.30;;;;;;;-0.14;51.47;94545.44;5076183;28;20682;-77
2021/01/16 10:46:15;;;;;;;15.82;8.93;;;;;;;-0.10;51.89;94547.78;5076219;28;20213;-78
2021/01/16 10:48:41;;;;;;;15.65;5.78;;;;;;;-0.28;51.13;94546.13;5076139;28;20198;-78
2021/01/16 10:51:10;;;;;;;6.57;5.13;;;;;;;-0.37;54.14;94533.66;5076007;28;20595;-82
2021/01/16 10:53:38;;;;;;;16.52;6.00;;;;;;;-0.50;50.80;94532.56;5076209;28;20242;-78
2021/01/16 10:56:12;;;;;;;10.38;5.90;;;;;;;-0.62;50.65;94532.25;5076150;28;20217;-78
2021/01/16 10:58:40;;;;;;;6.70;5.00;;;;;;;-0.69;49.71;94533.44;5076170;28;20202;-78
2021/01/16 11:01:09;;;;;;;13.40;4.22;;;;;;;-0.70;50.48;94533.50;5076051;28;20577;-78
2021/01/16 11:03:36;;;;;;;7.80;5.03;;;;;;;-0.86;50.48;94530.84;5075776;28;20248;-79
2021/01/16 11:06:07;;;;;;;4.75;4.15;;;;;;;-0.82;51.72;94522.06;5075808;28;20210;-77
2021/01/16 11:08:35;;;;;;;4.22;3.63;;;;;;;-0.70;51.63;94524.03;5075817;28;20225;-81
2021/01/16 11:11:23;;;;;;;9.00;4.55;;;;;;;-0.69;50.31;94517.16;5076241;28;20212;-78
2021/01/16 11:13:50;;;;;;;5.40;4.75;;;;;;;-0.84;49.30;94515.31;5076746;28;20240;-79
2021/01/16 11:16:22;;;;;;;10.05;5.07;;;;;;;-0.88;49.56;94517.16;5075940;28;20198;-79
2021/01/16 11:18:50;;;;;;;7.95;5.60;;;;;;;-0.93;50.29;94513.97;5075812;28;20650;-79
2021/01/16 11:21:48;;;;;;;4.70;4.25;;;;;;;-0.84;52.81;94497.28;5075649;28;20198;-77
2021/01/16 11:24:56;;;;;;;6.50;4.55;;;;;;;-0.84;50.04;94508.41;4994203;28;20262;-79
2021/01/16 11:27:23;;;;;;;9.82;5.07;;;;;;;-0.76;51.12;94503.72;4955326;29;20207;-78
2021/01/16 11:29:52;;;;;;;6.03;4.35;;;;;;;-0.63;49.87;94506.53;4955082;29;20729;-78
2021/01/16 11:32:20;;;;;;;4.57;3.75;;;;;;;-0.65;48.88;94483.44;4955053;29;20206;-79
2021/01/16 11:35:06;;;;;;;8.73;4.50;;;;;;;-0.62;51.60;94498.75;4955439;29;20237;-77
2021/01/16 11:37:47;;;;;;;7.18;4.78;;;;;;;-0.91;50.79;94486.41;4955017;29;20599;-77